Time;durP1;ratioP1;P1;durP2;ratioP2;P2;SDS_P1;SDS_P2;PMS_P1;PMS_P2;Temp;Humidity;BMP_temperature;BMP_pressure;BME280_temperature;BME280_humidity;BME280_pressure;Samples;Min_cycle;Max_cycle;Signal;HPM_P1;HPM_P2
2022/06/08 00:00:54;;;;;;;16.37;12.07;;;;;;;16.89;100.00;97622.55;1757321;80;21095;-86
2022/06/08 00:03:33;;;;;;;19.27;14.23;;;;;;;16.88;100.00;97630.52;1779466;79;21471;-85
2022/06/08 00:05:59;;;;;;;14.05;12.37;;;;;;;16.83;100.00;97629.33;1757262;80;21157;-86
2022/06/08 00:08:25;;;;;;;15.53;13.25;;;;;;;16.82;100.00;97626.36;1752361;79;20999;-86
2022/06/08 00:10:50;;;;;;;17.07;14.38;;;;;;;16.83;100.00;97617.81;1767379;80;20889;-85
2022/06/08 00:13:16;;;;;;;14.23;12.78;;;;;;;16.86;100.00;97623.22;1779079;79;20870;-85
2022/06/08 00:15:42;;;;;;;16.10;13.45;;;;;;;16.87;100.00;97614.67;1744427;82;20857;-86
2022/06/08 00:18:10;;;;;;;18.30;14.90;;;;;;;16.89;100.00;97619.23;1744419;82;21816;-85
2022/06/08 00:20:37;;;;;;;17.75;13.88;;;;;;;16.90;100.00;97614.56;1744550;82;21007;-85
2022/06/08 00:23:03;;;;;;;19.48;16.42;;;;;;;16.91;100.00;97615.60;1695070;82;21084;-86
2022/06/08 00:25:30;;;;;;;21.20;17.55;;;;;;;16.94;100.00;97608.69;1778436;80;21175;-85
2022/06/08 00:27:56;;;;;;;27.13;18.02;;;;;;;16.99;100.00;97614.52;1761337;80;21028;-86
2022/06/08 00:30:22;;;;;;;24.70;18.35;;;;;;;17.01;100.00;97607.61;1759605;80;21060;-86
2022/06/08 00:32:48;;;;;;;27.17;20.85;;;;;;;17.04;100.00;97605.56;1762719;79;21008;-84
2022/06/08 00:35:14;;;;;;;30.37;23.27;;;;;;;17.06;100.00;97607.39;1738354;80;21506;-86
2022/06/08 00:37:41;;;;;;;27.60;21.97;;;;;;;17.06;100.00;97602.48;1763982;79;21602;-86
2022/06/08 00:40:08;;;;;;;26.68;21.68;;;;;;;17.10;100.00;97603.45;1763613;80;21059;-86
2022/06/08 00:42:34;;;;;;;26.62;22.35;;;;;;;17.12;100.00;97604.70;1781069;79;21275;-84
2022/06/08 00:45:07;;;;;;;27.85;22.98;;;;;;;17.10;100.00;97600.14;1764653;80;20877;-86
2022/06/08 00:47:41;;;;;;;28.90;21.80;;;;;;;17.08;100.00;97602.38;1750143;80;22113;-85
2022/06/08 00:50:17;;;;;;;27.48;22.00;;;;;;;17.09;100.00;97599.91;1777919;80;21519;-84
2022/06/08 00:52:43;;;;;;;30.02;22.42;;;;;;;17.13;100.00;97604.94;1763704;79;21115;-86
2022/06/08 00:55:11;;;;;;;26.97;20.85;;;;;;;17.16;100.00;97606.20;1750642;80;20996;-87
2022/06/08 00:57:44;;;;;;;27.32;22.42;;;;;;;17.16;100.00;97605.63;1739996;80;21442;-85
2022/06/08 01:00:20;;;;;;;26.37;21.60;;;;;;;17.18;100.00;97611.59;1767823;80;21013;-84
2022/06/08 01:02:46;;;;;;;31.12;23.80;;;;;;;17.18;100.00;97605.33;1752269;80;21013;-86
2022/06/08 01:05:40;;;;;;;29.12;22.82;;;;;;;17.18;100.00;97606.13;1778996;80;20889;-86
2022/06/08 01:08:33;;;;;;;25.00;22.00;;;;;;;17.15;100.00;97609.50;1780359;80;21437;-85
2022/06/08 01:11:10;;;;;;;25.75;22.20;;;;;;;17.11;100.00;97603.67;1745741;80;20979;-86
2022/06/08 01:13:38;;;;;;;27.60;23.00;;;;;;;17.05;100.00;97606.36;1768174;80;21029;-85
2022/06/08 01:16:07;;;;;;;27.37;20.70;;;;;;;16.99;100.00;97609.84;1755273;80;21037;-86
2022/06/08 01:18:33;;;;;;;22.65;18.37;;;;;;;16.93;100.00;97602.98;1778601;79;21057;-86
2022/06/08 01:21:27;;;;;;;26.73;21.93;;;;;;;16.91;100.00;97604.66;1756232;80;21167;-85
2022/06/08 01:24:01;;;;;;;25.57;19.35;;;;;;;16.94;100.00;97598.31;1775258;80;21020;-86
2022/06/08 01:26:48;;;;;;;23.77;19.23;;;;;;;16.93;100.00;97589.30;1756777;80;21001;-86
2022/06/08 01:29:34;;;;;;;24.27;18.40;;;;;;;16.96;100.00;97590.00;1748588;80;21070;-86
2022/06/08 01:32:23;;;;;;;23.27;20.77;;;;;;;16.96;100.00;97576.31;1756459;79;20993;-85
2022/06/08 01:35:19;;;;;;;24.43;20.77;;;;;;;16.94;100.00;97579.16;1789676;80;21844;-86
2022/06/08 01:38:09;;;;;;;27.17;21.12;;;;;;;16.95;100.00;97577.45;1776028;78;21003;-87
2022/06/08 01:41:03;;;;;;;33.35;22.62;;;;;;;16.97;100.00;97574.38;1777986;80;21068;-86
2022/06/08 01:43:57;;;;;;;26.73;22.40;;;;;;;16.93;100.00;97575.62;1755581;80;21058;-86
2022/06/08 01:46:31;;;;;;;29.82;22.75;;;;;;;16.89;100.00;97566.45;1773148;80;21049;-86
2022/06/08 01:49:15;;;;;;;29.10;21.65;;;;;;;16.89;100.00;97571.36;1783356;80;21106;-86
2022/06/08 01:52:13;;;;;;;30.92;20.50;;;;;;;16.89;100.00;97571.92;1787514;80;21045;-86
2022/06/08 01:55:01;;;;;;;;;;;;;;;16.88;100.00;97562.91;1777333;80;21038;-86
2022/06/08 01:57:44;;;;;;;25.85;20.02;;;;;;;16.86;100.00;97567.13;1783419;78;20164;-85
2022/06/08 02:00:21;;;;;;;28.40;20.70;;;;;;;16.84;100.00;97558.45;1787884;80;21087;-85
2022/06/08 02:03:00;;;;;;;25.62;21.12;;;;;;;16.86;100.00;97550.70;1786340;80;21079;-85
2022/06/08 02:05:36;;;;;;;;;;;;;;;16.83;100.00;97558.99;1784329;80;20984;-85
2022/06/08 02:08:25;;;;;;;24.00;19.32;;;;;;;16.80;100.00;97548.72;1787797;78;20438;-85
2022/06/08 02:11:08;;;;;;;25.15;20.82;;;;;;;16.81;100.00;97548.95;1781587;80;21455;-87
2022/06/08 02:13:39;;;;;;;33.23;19.80;;;;;;;16.81;100.00;97552.25;1769718;80;21060;-86
2022/06/08 02:16:19;;;;;;;25.05;19.90;;;;;;;16.81;100.00;97552.25;1786926;80;21125;-85
2022/06/08 02:18:53;;;;;;;28.23;20.27;;;;;;;16.79;100.00;97549.86;1784253;78;21490;-85
2022/06/08 02:21:25;;;;;;;24.23;19.60;;;;;;;16.77;100.00;97552.13;1787712;80;21067;-86
2022/06/08 02:23:55;;;;;;;26.82;19.95;;;;;;;16.76;100.00;97551.89;1764473;79;20999;-85
2022/06/08 02:26:30;;;;;;;23.38;19.35;;;;;;;16.74;100.00;97547.30;1771308;80;21072;-85
2022/06/08 02:29:04;;;;;;;28.87;22.65;;;;;;;16.72;100.00;97550.14;1763642;80;21186;-84
2022/06/08 02:31:36;;;;;;;30.52;23.77;;;;;;;16.69;100.00;97543.97;1787321;80;21100;-86
2022/06/08 02:37:15;;;;;;;35.35;25.08;;;;;;;16.67;100.00;97548.95;1787672;78;21016;-85
2022/06/08 02:39:58;;;;;;;35.33;25.45;;;;;;;16.67;100.00;97555.22;1769839;80;21052;-86
2022/06/08 02:42:27;;;;;;;32.75;25.77;;;;;;;16.71;100.00;97549.34;1787579;80;21137;-86
2022/06/08 02:44:58;;;;;;;33.90;25.62;;;;;;;16.72;100.00;97545.47;1787895;80;20989;-86
2022/06/08 02:47:31;;;;;;;37.03;26.50;;;;;;;16.71;100.00;97539.77;1761182;80;21463;-85
2022/06/08 02:50:05;;;;;;;42.67;30.57;;;;;;;16.72;100.00;97538.63;1773485;80;20973;-86
2022/06/08 02:52:31;;;;;;;40.17;27.93;;;;;;;16.71;100.00;97535.66;1787846;78;21008;-86
2022/06/08 02:54:57;;;;;;;33.40;24.92;;;;;;;16.71;100.00;97535.66;1788056;80;21316;-86
2022/06/08 02:57:55;;;;;;;38.58;27.27;;;;;;;16.70;100.00;97542.27;1780973;78;21062;-85
2022/06/08 03:00:37;;;;;;;38.78;28.87;;;;;;;16.65;100.00;97541.05;1777757;80;21541;-84
2022/06/08 03:03:17;;;;;;;39.90;30.40;;;;;;;16.65;100.00;97545.16;1787661;78;20976;-86
2022/06/08 03:05:48;;;;;;;42.55;27.70;;;;;;;16.67;100.00;97539.37;1788115;80;21000;-84
2022/06/08 03:08:26;;;;;;;35.63;26.37;;;;;;;16.69;100.00;97539.30;1787693;78;21661;-86
2022/06/08 03:10:52;;;;;;;42.25;27.75;;;;;;;16.70;100.00;97536.00;1788042;80;21020;-86
2022/06/08 03:13:29;;;;;;;37.58;26.68;;;;;;;16.70;100.00;97538.73;1787744;80;20952;-85
2022/06/08 03:15:58;;;;;;;39.25;26.68;;;;;;;16.68;100.00;97534.94;1788293;80;21076;-86
2022/06/08 03:18:24;;;;;;;41.58;27.98;;;;;;;16.69;100.00;97533.03;1787747;80;21063;-86
2022/06/08 03:20:52;;;;;;;37.90;27.87;;;;;;;16.67;100.00;97533.91;1787843;80;21054;-85
2022/06/08 03:23:18;;;;;;;39.60;27.62;;;;;;;16.63;100.00;97533.75;1787908;80;21032;-87
2022/06/08 03:25:44;;;;;;;39.20;28.80;;;;;;;16.58;100.00;97534.75;1771579;80;20901;-84
2022/06/08 03:28:13;;;;;;;46.25;29.72;;;;;;;16.60;100.00;97543.98;1787726;80;21020;-85
2022/06/08 03:30:39;;;;;;;43.98;28.45;;;;;;;16.64;100.00;97544.92;1781794;80;20980;-86
2022/06/08 03:33:04;;;;;;;40.15;25.70;;;;;;;16.66;100.00;97548.12;1787808;78;21448;-86
2022/06/08 03:35:30;;;;;;;47.15;28.47;;;;;;;16.70;100.00;97543.63;1771535;80;21640;-84
2022/06/08 03:37:58;;;;;;;46.33;32.28;;;;;;;16.73;100.00;97554.48;1787933;80;20876;-87
2022/06/08 03:40:24;;;;;;;39.90;26.77;;;;;;;16.72;100.00;97549.57;1788233;80;21570;-84
2022/06/08 03:42:50;;;;;;;46.80;31.05;;;;;;;16.73;100.00;97550.38;1787816;80;20898;-84
2022/06/08 03:45:16;;;;;;;50.52;29.60;;;;;;;16.70;100.00;97549.11;1787968;80;21860;-87
2022/06/08 03:47:45;;;;;;;52.25;29.05;;;;;;;16.68;100.00;97542.34;1787957;78;21009;-86
2022/06/08 03:50:17;;;;;;;49.38;32.03;;;;;;;16.67;100.00;97550.31;1757996;80;26503;-85
2022/06/08 03:52:47;;;;;;;46.70;30.70;;;;;;;16.68;100.00;97555.45;1775347;78;20976;-84
2022/06/08 03:55:13;;;;;;;49.85;30.20;;;;;;;16.72;100.00;97544.67;1777183;80;21036;-85
2022/06/08 03:57:41;;;;;;;43.87;29.50;;;;;;;16.73;100.00;97546.27;1744429;80;21075;-88
2022/06/08 04:00:08;;;;;;;41.30;28.77;;;;;;;16.75;100.00;97543.45;1787874;80;21004;-87
2022/06/08 04:02:34;;;;;;;44.10;28.57;;;;;;;16.73;100.00;97547.06;1787760;80;21059;-85
2022/06/08 04:05:00;;;;;;;45.38;28.73;;;;;;;16.74;100.00;97551.41;1787895;80;20904;-86
2022/06/08 04:07:25;;;;;;;42.62;26.60;;;;;;;16.73;100.00;97554.48;1787841;78;20987;-87
2022/06/08 04:09:51;;;;;;;45.00;29.35;;;;;;;16.75;100.00;97561.24;1787937;80;21253;-84
2022/06/08 04:12:22;;;;;;;43.60;29.45;;;;;;;16.73;100.00;97555.84;1768215;80;20862;-85
2022/06/08 04:14:45;;;;;;;42.15;30.20;;;;;;;16.75;100.00;97553.03;1764145;80;21027;-87
2022/06/08 04:17:11;;;;;;;45.03;28.92;;;;;;;16.79;100.00;97553.96;1780093;80;20952;-87
2022/06/08 04:19:37;;;;;;;41.50;24.55;;;;;;;16.87;100.00;97545.47;1771703;80;21037;-87
2022/06/08 04:22:04;;;;;;;50.58;30.82;;;;;;;16.90;100.00;97544.80;1778314;80;21328;-84
2022/06/08 04:24:29;;;;;;;51.75;31.30;;;;;;;16.91;100.00;97547.76;1781501;80;21263;-87
2022/06/08 04:26:56;;;;;;;47.35;31.15;;;;;;;16.96;100.00;97548.14;1787216;78;20897;-87
2022/06/08 04:29:22;;;;;;;42.48;29.27;;;;;;;16.97;100.00;97551.11;1759583;80;21052;-87
2022/06/08 04:31:48;;;;;;;46.88;27.58;;;;;;;16.97;100.00;97555.22;1787920;78;20987;-87
2022/06/08 04:34:14;;;;;;;45.08;27.35;;;;;;;16.97;100.00;97550.55;1787842;80;21019;-84
2022/06/08 04:36:40;;;;;;;42.50;27.75;;;;;;;17.01;100.00;97552.06;1763564;80;21569;-85
2022/06/08 04:39:07;;;;;;;45.28;29.48;;;;;;;17.03;100.00;97556.06;1788058;80;21056;-85
2022/06/08 04:41:34;;;;;;;43.87;28.45;;;;;;;17.04;100.00;97554.13;1771891;78;21043;-85
2022/06/08 04:44:00;;;;;;;44.40;26.10;;;;;;;17.05;100.00;97541.47;1764689;80;21049;-84
2022/06/08 04:46:29;;;;;;;43.10;27.07;;;;;;;17.10;100.00;97551.44;1788113;80;21229;-84
2022/06/08 04:48:54;;;;;;;;;;;;;;;17.14;100.00;97554.52;1786951;80;21004;-84
2022/06/08 04:51:20;;;;;;;41.88;25.50;;;;;;;17.14;100.00;97554.52;1785437;80;20182;-84
2022/06/08 04:53:47;;;;;;;46.00;26.82;;;;;;;17.15;100.00;97551.22;1764551;78;20887;-87
2022/06/08 04:56:14;;;;;;;43.00;27.27;;;;;;;17.16;100.00;97560.46;1787871;80;20983;-87
2022/06/08 04:58:40;;;;;;;55.20;28.83;;;;;;;17.18;100.00;97563.69;1771879;78;21461;-87
2022/06/08 05:01:06;;;;;;;46.05;28.52;;;;;;;17.18;100.00;97556.05;1787858;80;20976;-84
2022/06/08 05:03:32;;;;;;;47.30;28.85;;;;;;;17.15;100.00;97553.95;1787553;78;20976;-85
2022/06/08 05:05:59;;;;;;;60.58;36.95;;;;;;;17.09;100.00;97548.44;1750666;80;20840;-87
2022/06/08 05:08:25;;;;;;;58.13;34.38;;;;;;;17.00;100.00;97549.87;1787554;78;20984;-84
2022/06/08 05:10:53;;;;;;;42.78;26.20;;;;;;;17.01;100.00;97552.87;1787588;80;21993;-87
2022/06/08 05:13:19;;;;;;;47.08;31.77;;;;;;;17.06;100.00;97558.69;1784380;80;21036;-84
2022/06/08 05:15:45;;;;;;;45.28;28.73;;;;;;;16.98;100.00;97558.98;1764619;80;21507;-87
2022/06/08 05:18:12;;;;;;;44.48;29.27;;;;;;;16.99;100.00;97562.52;1786091;78;21461;-87
2022/06/08 05:20:40;;;;;;;46.02;28.45;;;;;;;17.01;100.00;97565.18;1771112;80;21402;-84
2022/06/08 05:23:08;;;;;;;41.75;27.37;;;;;;;17.01;100.00;97570.66;1787797;78;21119;-86
2022/06/08 05:25:37;;;;;;;51.93;31.83;;;;;;;17.01;100.00;97573.96;1781856;80;20967;-84
2022/06/08 05:28:04;;;;;;;44.27;27.73;;;;;;;17.04;100.00;97574.09;1784084;78;21071;-84
2022/06/08 05:30:32;;;;;;;47.80;29.70;;;;;;;17.02;100.00;97574.99;1777856;78;21424;-85
2022/06/08 05:32:58;;;;;;;54.05;31.87;;;;;;;17.03;100.00;97579.89;1770474;80;21050;-84
2022/06/08 05:35:24;;;;;;;49.75;33.38;;;;;;;16.99;100.00;97585.78;1787758;80;21143;-85
2022/06/08 05:37:51;;;;;;;48.55;32.85;;;;;;;16.94;100.00;97593.64;1779590;78;21004;-87
2022/06/08 05:40:17;;;;;;;46.08;30.17;;;;;;;16.91;100.00;97601.92;1786588;79;21025;-87
2022/06/08 05:42:43;;;;;;;43.92;32.15;;;;;;;16.89;100.00;97607.50;1787337;80;21056;-85
2022/06/08 05:45:16;;;;;;;43.83;28.55;;;;;;;16.87;100.00;97607.03;1786679;78;20937;-87
2022/06/08 05:47:43;;;;;;;43.58;28.32;;;;;;;16.84;100.00;97606.34;1756524;80;21119;-86
2022/06/08 05:50:09;;;;;;;39.15;26.15;;;;;;;16.82;100.00;97600.37;1772469;78;22107;-86
2022/06/08 05:52:35;;;;;;;50.12;28.25;;;;;;;16.79;100.00;97583.25;1770472;78;21009;-87
2022/06/08 05:55:01;;;;;;;45.78;30.08;;;;;;;16.76;100.00;97587.46;1774109;78;20885;-86
2022/06/08 05:57:27;;;;;;;39.80;27.22;;;;;;;16.71;100.00;97595.05;1784609;78;20960;-87
2022/06/08 05:59:53;;;;;;;43.70;29.35;;;;;;;16.70;100.00;97597.55;1779415;80;21075;-87
2022/06/08 06:02:19;;;;;;;36.95;28.35;;;;;;;16.71;100.00;97585.47;1737997;81;20862;-85
2022/06/08 06:04:45;;;;;;;32.90;24.90;;;;;;;16.69;100.00;97574.86;1681938;83;21016;-86
2022/06/08 06:07:14;;;;;;;29.18;21.15;;;;;;;16.68;100.00;97570.50;1694820;82;21006;-87
2022/06/08 06:09:40;;;;;;;21.50;17.57;;;;;;;16.69;100.00;97568.02;1765194;79;22017;-86
2022/06/08 06:12:07;;;;;;;24.35;17.80;;;;;;;16.75;100.00;97575.45;1771288;79;21153;-86
2022/06/08 06:14:33;;;;;;;21.33;15.32;;;;;;;16.84;100.00;97581.14;1764868;80;21012;-85
2022/06/08 06:16:59;;;;;;;19.77;15.95;;;;;;;16.89;100.00;97583.67;1763683;80;21075;-86
2022/06/08 06:19:25;;;;;;;21.70;18.60;;;;;;;16.89;100.00;97583.67;1769880;79;20926;-86
2022/06/08 06:21:51;;;;;;;19.92;15.05;;;;;;;16.96;100.00;97579.62;1779390;80;20857;-85
2022/06/08 06:24:17;;;;;;;22.02;18.07;;;;;;;17.04;100.00;97585.60;1765996;80;21772;-86
2022/06/08 06:26:43;;;;;;;22.35;17.37;;;;;;;17.03;100.00;97586.17;1776636;79;21051;-86
2022/06/08 06:29:10;;;;;;;25.88;17.85;;;;;;;17.04;100.00;97591.87;1771166;80;22362;-86
2022/06/08 06:31:47;;;;;;;33.42;22.75;;;;;;;17.10;100.00;97596.59;1775497;79;21067;-86
2022/06/08 06:34:14;;;;;;;29.67;19.87;;;;;;;17.10;100.00;97589.19;1774616;80;21092;-86
2022/06/08 06:36:40;;;;;;;42.05;23.00;;;;;;;17.12;100.00;97586.11;1772229;79;21855;-86
2022/06/08 06:39:06;;;;;;;27.40;17.50;;;;;;;17.15;100.00;97585.44;1759865;80;21028;-86
2022/06/08 06:41:32;;;;;;;21.85;16.02;;;;;;;17.11;100.00;97579.04;1779815;79;20944;-86
2022/06/08 06:43:59;;;;;;;26.70;18.75;;;;;;;17.07;100.00;97573.41;1772336;80;20862;-86
2022/06/08 06:46:25;;;;;;;19.60;14.93;;;;;;;17.01;100.00;97565.18;1776435;79;21410;-86
2022/06/08 06:48:51;;;;;;;13.50;10.58;;;;;;;16.88;100.00;97562.91;1766863;79;21150;-85
2022/06/08 06:51:17;;;;;;;11.68;10.48;;;;;;;16.89;100.00;97567.25;1772766;79;20973;-86
2022/06/08 06:53:44;;;;;;;11.57;9.35;;;;;;;16.83;100.00;97562.30;1772154;79;22257;-86
2022/06/08 06:56:10;;;;;;;10.35;9.20;;;;;;;16.80;100.00;97560.23;1770046;79;21025;-86
2022/06/08 06:58:36;;;;;;;9.70;8.63;;;;;;;16.84;100.00;97567.46;1768591;79;20861;-86
2022/06/08 07:01:04;;;;;;;8.83;7.08;;;;;;;16.88;100.00;97572.49;1770053;79;21795;-86
2022/06/08 07:03:30;;;;;;;9.03;7.67;;;;;;;16.87;100.00;97575.00;1775863;78;21080;-86
2022/06/08 07:05:56;;;;;;;8.80;7.75;;;;;;;16.86;100.00;97572.03;1765250;79;21639;-85
2022/06/08 07:08:22;;;;;;;9.50;8.48;;;;;;;16.92;100.00;97569.91;1772567;78;20937;-85
2022/06/08 07:13:32;;;;;;;11.65;10.00;;;;;;;16.91;100.00;97580.03;1771517;79;21067;-85
2022/06/08 07:15:58;;;;;;;11.30;10.10;;;;;;;17.02;100.00;97579.09;1776857;79;20858;-85
2022/06/08 07:18:23;;;;;;;11.35;10.15;;;;;;;17.10;100.00;97576.87;1776708;80;20984;-85
2022/06/08 07:20:49;;;;;;;11.85;10.40;;;;;;;17.13;100.00;97572.09;1775774;80;21390;-85
2022/06/08 07:23:15;;;;;;;13.50;10.32;;;;;;;17.03;100.00;97569.75;1764091;79;20969;-85
2022/06/08 07:25:41;;;;;;;11.38;9.65;;;;;;;17.05;100.00;97563.38;1767142;80;21167;-85
2022/06/08 07:28:07;;;;;;;11.12;9.10;;;;;;;17.15;100.00;97568.44;1764304;79;20870;-85
2022/06/08 07:30:33;;;;;;;11.15;9.98;;;;;;;17.20;100.00;97574.30;1764327;80;22421;-85
2022/06/08 07:32:59;;;;;;;11.65;10.38;;;;;;;17.25;100.00;97583.67;1765619;79;20968;-85
2022/06/08 07:35:25;;;;;;;13.05;10.80;;;;;;;17.27;100.00;97578.68;1775643;80;21071;-85
2022/06/08 07:37:51;;;;;;;12.05;10.85;;;;;;;17.32;100.00;97579.84;1765942;79;21036;-86
2022/06/08 07:40:17;;;;;;;12.00;10.55;;;;;;;17.38;100.00;97573.03;1770460;79;20934;-86
2022/06/08 07:42:43;;;;;;;11.63;10.43;;;;;;;17.44;100.00;97582.66;1773253;79;21519;-86
2022/06/08 07:45:10;;;;;;;11.25;9.70;;;;;;;17.44;100.00;97590.88;1771095;80;20956;-86
2022/06/08 07:49:36;;;;;;;12.68;11.35;;;;;;;17.49;100.00;97594.75;1774848;78;20997;-86
2022/06/08 07:50:04;;;;;;;18.55;14.05;;;;;;;17.54;100.00;97601.98;1737696;79;21447;-85
2022/06/08 07:52:30;;;;;;;19.60;15.05;;;;;;;17.57;100.00;97611.46;1739652;79;21402;-85
2022/06/08 07:54:56;;;;;;;15.32;12.68;;;;;;;17.50;100.00;97620.20;1751668;79;21610;-85
2022/06/08 07:57:27;;;;;;;14.63;12.13;;;;;;;17.47;100.00;97630.47;1730398;80;21409;-86
2022/06/08 07:59:53;;;;;;;11.12;10.03;;;;;;;17.44;100.00;97634.69;1728117;80;21422;-86
2022/06/08 08:02:19;;;;;;;11.12;9.40;;;;;;;17.38;100.00;97644.23;1775577;78;20997;-86
2022/06/08 08:04:45;;;;;;;10.53;8.98;;;;;;;17.33;100.00;97646.35;1770988;79;20983;-86
2022/06/08 08:07:11;;;;;;;9.53;8.30;;;;;;;17.32;100.00;97638.70;1773300;79;20883;-86
2022/06/08 08:09:37;;;;;;;11.57;9.18;;;;;;;17.28;100.00;97633.67;1736244;79;20869;-86
2022/06/08 08:12:04;;;;;;;12.18;10.70;;;;;;;17.26;100.00;97641.42;1774752;79;21029;-86
2022/06/08 08:14:33;;;;;;;10.23;9.15;;;;;;;17.26;100.00;97653.75;1766442;79;21681;-86
2022/06/08 08:16:58;;;;;;;13.70;10.67;;;;;;;17.23;100.00;97655.76;1771676;79;21048;-86
2022/06/08 08:19:25;;;;;;;11.68;9.40;;;;;;;17.17;100.00;97655.70;1765642;79;20944;-86
2022/06/08 08:21:52;;;;;;;9.70;8.40;;;;;;;17.13;100.00;97644.63;1768391;79;21172;-84
2022/06/08 08:24:18;;;;;;;11.15;9.73;;;;;;;17.12;100.00;97648.50;1771127;79;20985;-86
2022/06/08 08:26:45;;;;;;;11.57;10.18;;;;;;;17.11;100.00;97648.84;1768166;79;21072;-86
2022/06/08 08:29:13;;;;;;;10.53;8.98;;;;;;;17.08;100.00;97641.27;1771297;79;21068;-85
2022/06/08 08:31:40;;;;;;;11.22;8.90;;;;;;;17.07;100.00;97639.67;1769120;79;21094;-85
2022/06/08 08:34:06;;;;;;;10.72;7.58;;;;;;;17.07;100.00;97626.78;1736989;80;21005;-85
2022/06/08 08:36:32;;;;;;;7.47;6.28;;;;;;;16.99;100.00;97614.52;1760320;79;21000;-85
2022/06/08 08:38:58;;;;;;;8.23;6.78;;;;;;;16.95;100.00;97602.08;1772768;79;21776;-85
2022/06/08 08:44:20;;;;;;;7.53;5.80;;;;;;;17.01;100.00;97610.91;1769627;78;21537;-85
2022/06/08 08:47:01;;;;;;;7.90;7.17;;;;;;;17.01;100.00;97613.64;1759866;79;21057;-85
2022/06/08 08:49:27;;;;;;;8.65;7.85;;;;;;;17.10;100.00;97615.77;1768887;80;20997;-84
2022/06/08 08:52:05;;;;;;;11.83;9.15;;;;;;;17.19;100.00;97606.36;1767613;79;21887;-85
2022/06/08 08:54:38;;;;;;;9.10;7.50;;;;;;;17.24;100.00;97603.17;1771310;79;21044;-86
2022/06/08 08:57:25;;;;;;;9.05;8.15;;;;;;;17.33;100.00;97603.91;1770067;79;21107;-86
2022/06/08 08:59:51;;;;;;;9.83;7.30;;;;;;;17.38;100.00;97607.26;1765698;79;21091;-86
2022/06/08 09:03:14;;;;;;;11.90;8.03;;;;;;;17.46;100.00;97612.44;1766695;80;20873;-86
2022/06/08 09:04:49;;;;;;;9.80;7.85;;;;;;;17.56;100.00;97619.45;1771657;79;21080;-84
2022/06/08 09:07:17;;;;;;;9.40;7.87;;;;;;;17.55;100.00;97615.91;1734559;80;20931;-86
2022/06/08 09:09:43;;;;;;;8.60;6.80;;;;;;;17.61;100.00;97613.78;1772254;79;21777;-85
2022/06/08 09:12:18;;;;;;;6.95;6.25;;;;;;;17.74;100.00;97605.30;1765441;79;20997;-86
2022/06/08 09:14:50;;;;;;;6.90;4.45;;;;;;;17.91;100.00;97604.91;1770060;79;21546;-87
2022/06/08 09:17:35;;;;;;;5.58;4.62;;;;;;;18.10;100.00;97604.38;1744735;80;22377;-83
2022/06/08 09:20:06;;;;;;;6.08;5.35;;;;;;;18.32;100.00;97597.94;1761686;79;21039;-83
2022/06/08 09:22:31;;;;;;;5.78;5.20;;;;;;;18.47;100.00;97601.16;1766440;79;21083;-87
2022/06/08 09:25:07;;;;;;;6.10;5.50;;;;;;;18.63;100.00;97604.84;1766148;79;21401;-84
2022/06/08 09:27:36;;;;;;;5.62;4.67;;;;;;;18.73;100.00;97598.13;1767022;79;21103;-86
2022/06/08 09:30:13;;;;;;;4.35;3.87;;;;;;;18.81;99.68;97595.84;1712662;82;21098;-86
2022/06/08 09:32:56;;;;;;;6.00;5.40;;;;;;;18.76;99.19;97590.56;1771078;80;21092;-86
2022/06/08 09:35:30;;;;;;;6.90;6.20;;;;;;;18.70;98.20;97587.24;1765188;79;21114;-85
2022/06/08 09:38:06;;;;;;;6.17;4.53;;;;;;;18.74;98.53;97581.88;1769778;79;20973;-86
2022/06/08 09:40:37;;;;;;;7.37;4.30;;;;;;;18.81;98.72;97573.88;1767137;79;21043;-86
2022/06/08 09:43:38;;;;;;;5.35;4.83;;;;;;;18.80;98.41;97575.83;1766505;80;20997;-86
2022/06/08 09:52:20;;;;;;;11.83;10.63;;;;;;;18.71;97.20;97579.23;1741368;78;21041;-85
2022/06/08 09:55:36;;;;;;;12.73;10.15;;;;;;;18.87;97.49;97580.72;1717402;81;21026;-85
2022/06/08 09:58:14;;;;;;;9.25;8.18;;;;;;;18.92;96.79;97578.33;1751823;80;21487;-86
2022/06/08 10:01:15;;;;;;;7.35;5.60;;;;;;;18.95;96.64;97582.55;1755261;79;21075;-85
2022/06/08 10:04:15;;;;;;;5.45;4.87;;;;;;;18.85;94.62;97580.27;1775842;79;21055;-85
2022/06/08 10:06:59;;;;;;;6.00;5.40;;;;;;;18.85;95.09;97570.66;1770009;79;21497;-85
2022/06/08 10:09:58;;;;;;;6.90;5.00;;;;;;;18.94;95.37;97564.47;1760534;79;21521;-85
2022/06/08 10:12:59;;;;;;;6.37;5.45;;;;;;;18.97;94.79;97570.67;1786053;79;21394;-85
2022/06/08 10:15:34;;;;;;;6.17;4.97;;;;;;;19.11;94.90;97568.91;1778935;79;21080;-86
2022/06/08 10:18:22;;;;;;;7.65;6.92;;;;;;;19.11;94.27;97564.22;1778187;79;21138;-84
2022/06/08 10:20:52;;;;;;;4.20;3.80;;;;;;;19.23;93.58;97551.05;1755587;79;21095;-84
2022/06/08 10:23:38;;;;;;;5.35;4.65;;;;;;;19.40;92.38;97554.09;1771280;79;21483;-84
2022/06/08 10:26:16;;;;;;;6.45;4.92;;;;;;;19.72;92.31;97557.76;1753836;80;21915;-84
2022/06/08 10:28:46;;;;;;;5.58;4.40;;;;;;;20.03;91.30;97552.91;1734311;79;22178;-84
2022/06/08 10:31:22;;;;;;;6.12;4.70;;;;;;;20.29;92.48;97551.03;1758807;80;21059;-86
2022/06/08 10:33:58;;;;;;;5.03;4.53;;;;;;;20.28;90.77;97540.61;1742988;81;21063;-85
2022/06/08 10:36:24;;;;;;;4.90;4.40;;;;;;;20.23;90.43;97533.19;1752904;79;20990;-86
2022/06/08 10:38:49;;;;;;;4.30;3.80;;;;;;;20.29;91.19;97534.53;1744852;79;21278;-86
2022/06/08 10:44:38;;;;;;;6.87;4.00;;;;;;;20.24;90.00;97532.83;1771417;80;21557;-86
2022/06/08 10:47:16;;;;;;;5.17;3.95;;;;;;;20.19;90.14;97528.19;1773512;79;21004;-86
2022/06/08 10:49:47;;;;;;;4.47;4.07;;;;;;;20.17;90.14;97534.05;1768932;79;21529;-87
2022/06/08 10:52:24;;;;;;;4.95;4.15;;;;;;;20.16;90.01;97537.13;1765822;79;21620;-85
2022/06/08 10:54:54;;;;;;;4.85;4.08;;;;;;;20.25;90.02;97535.83;1779648;79;21454;-86
2022/06/08 10:57:50;;;;;;;3.75;3.33;;;;;;;20.40;89.08;97537.53;1752495;80;21032;-84
2022/06/08 11:00:25;;;;;;;4.00;3.47;;;;;;;20.44;88.88;97535.14;1763209;78;21071;-84
2022/06/08 11:03:03;;;;;;;4.10;3.70;;;;;;;20.46;88.60;97532.82;1773601;79;21021;-84
2022/06/08 11:05:36;;;;;;;;;;;;;;;20.40;86.75;97522.41;1778826;80;21890;-84
2022/06/08 11:08:12;;;;;;;5.92;5.28;;;;;;;20.32;87.14;97517.30;1773977;80;20176;-84
2022/06/08 11:10:51;;;;;;;5.60;4.00;;;;;;;20.25;87.43;97510.24;1773957;80;20993;-84
2022/06/08 11:13:35;;;;;;;6.45;4.25;;;;;;;20.31;87.59;97516.28;1742947;80;21016;-84
2022/06/08 11:16:15;;;;;;;4.42;4.00;;;;;;;20.33;87.45;97512.02;1775475;80;21029;-84
2022/06/08 11:18:51;;;;;;;5.75;3.70;;;;;;;20.51;87.31;97513.88;1770940;79;21397;-84
2022/06/08 11:21:45;;;;;;;3.80;3.50;;;;;;;20.63;87.15;97507.46;1774804;80;21091;-84
2022/06/08 11:24:32;;;;;;;4.15;3.75;;;;;;;20.67;85.96;97516.59;1748828;79;21120;-84
2022/06/08 11:27:13;;;;;;;3.50;3.20;;;;;;;20.64;86.36;97513.98;1744400;80;21083;-84
2022/06/08 11:29:54;;;;;;;4.12;3.37;;;;;;;20.45;85.69;97519.42;1768878;80;21016;-85
2022/06/08 11:32:38;;;;;;;5.47;4.05;;;;;;;20.42;85.95;97525.02;1775559;79;21070;-85
2022/06/08 11:35:41;;;;;;;4.58;4.03;;;;;;;20.35;85.88;97524.86;1761383;80;21098;-85
2022/06/08 11:38:41;;;;;;;3.85;2.67;;;;;;;20.29;86.21;97525.70;1765905;80;21060;-85
2022/06/08 11:41:36;;;;;;;8.83;3.50;;;;;;;20.27;86.29;97512.08;1750911;80;20961;-84
2022/06/08 11:44:07;;;;;;;6.40;2.90;;;;;;;20.49;86.44;97512.04;1778432;80;21037;-84
2022/06/08 11:46:43;;;;;;;6.10;2.92;;;;;;;20.43;86.49;97516.20;1772229;79;21129;-84
2022/06/08 11:49:33;;;;;;;3.45;2.98;;;;;;;20.50;85.67;97520.52;1734759;80;21065;-84
2022/06/08 11:52:01;;;;;;;3.25;2.60;;;;;;;20.53;85.47;97516.48;1766748;80;21151;-85
2022/06/08 11:54:31;;;;;;;4.35;3.40;;;;;;;20.60;85.40;97525.50;1767587;79;21047;-84
2022/06/08 11:57:02;;;;;;;5.85;3.10;;;;;;;20.60;85.34;97529.63;1774099;79;20961;-85